createdAt,value
2022-12-15T00:01:59.505Z,15.65
2022-12-15T00:04:44.893Z,19.83
2022-12-15T00:07:30.291Z,18.55
2022-12-15T00:10:15.686Z,22.60
2022-12-15T00:13:01.184Z,16.70
2022-12-15T00:15:46.789Z,24.92
2022-12-15T00:18:32.129Z,19.27
2022-12-15T00:21:18.481Z,22.90
2022-12-15T00:24:03.990Z,18.90
2022-12-15T00:26:49.317Z,18.10
2022-12-15T00:29:34.791Z,16.17
2022-12-15T00:32:20.069Z,17.08
2022-12-15T00:35:05.358Z,19.75
2022-12-15T00:37:50.718Z,19.35
2022-12-15T00:40:17.374Z,19.63
2022-12-15T00:42:43.951Z,26.63
2022-12-15T00:45:11.171Z,18.02
2022-12-15T00:47:37.804Z,15.20
2022-12-15T00:50:23.624Z,17.17
2022-12-15T00:53:09.011Z,27.77
2022-12-15T00:55:54.356Z,19.20
2022-12-15T00:58:39.570Z,21.63
2022-12-15T01:01:28.482Z,16.33
2022-12-15T01:04:13.752Z,16.00
2022-12-15T01:06:59.357Z,15.60
2022-12-15T01:09:44.912Z,14.80
2022-12-15T01:12:30.316Z,16.88
2022-12-15T01:15:15.775Z,14.05
2022-12-15T01:18:01.110Z,18.42
2022-12-15T01:20:27.734Z,16.17
2022-12-15T01:22:55.794Z,19.48
2022-12-15T01:25:25.253Z,17.25
2022-12-15T01:27:52.278Z,25.88
2022-12-15T01:30:21.817Z,20.45
2022-12-15T01:32:48.838Z,17.33
2022-12-15T01:35:16.152Z,20.10
2022-12-15T01:37:42.870Z,17.67
2022-12-15T01:40:34.795Z,18.45
2022-12-15T01:43:01.670Z,27.88
2022-12-15T01:45:31.000Z,22.52
2022-12-15T01:48:12.592Z,23.15
2022-12-15T01:50:52.758Z,20.05
2022-12-15T01:53:19.394Z,17.60
2022-12-15T01:55:48.026Z,17.70
2022-12-15T01:58:18.114Z,21.10
2022-12-15T02:00:44.952Z,14.40
2022-12-15T02:03:13.089Z,15.63
2022-12-15T02:05:40.943Z,19.55
2022-12-15T02:08:08.276Z,15.35
2022-12-15T02:10:48.680Z,15.65
2022-12-15T02:13:36.482Z,13.80
2022-12-15T02:16:20.836Z,18.58
2022-12-15T02:19:00.900Z,12.23
2022-12-15T02:21:58.131Z,18.80
2022-12-15T02:24:52.173Z,14.25
2022-12-15T02:27:31.804Z,18.90
2022-12-15T02:30:26.304Z,15.85
2022-12-15T02:33:08.095Z,16.27
2022-12-15T02:36:01.076Z,16.30
2022-12-15T02:38:37.387Z,15.77
2022-12-15T02:41:06.529Z,14.73
2022-12-15T02:43:37.437Z,15.68
2022-12-15T02:46:06.910Z,20.38
2022-12-15T02:48:55.145Z,24.42
2022-12-15T02:51:43.931Z,18.67
2022-12-15T02:54:42.315Z,15.25
2022-12-15T02:57:24.764Z,19.95
2022-12-15T02:59:55.496Z,15.50
2022-12-15T03:02:26.498Z,16.50
2022-12-15T03:04:53.873Z,13.82
2022-12-15T03:07:23.542Z,15.20
2022-12-15T03:09:50.280Z,14.10
2022-12-15T03:12:16.825Z,14.98
2022-12-15T03:14:44.091Z,28.08
2022-12-15T03:17:10.769Z,12.70
2022-12-15T03:19:37.392Z,16.90
2022-12-15T03:22:04.278Z,15.70
2022-12-15T03:24:30.931Z,14.38
2022-12-15T03:26:57.710Z,27.05
2022-12-15T03:29:24.371Z,14.05
2022-12-15T03:31:51.010Z,20.40
2022-12-15T03:34:17.938Z,16.05
2022-12-15T03:36:44.593Z,16.42
2022-12-15T03:39:11.284Z,13.80
2022-12-15T03:41:38.058Z,18.05
2022-12-15T03:44:04.861Z,13.35
2022-12-15T03:46:31.466Z,14.50
2022-12-15T03:48:58.499Z,17.35
2022-12-15T03:51:25.238Z,15.40
2022-12-15T03:53:54.886Z,12.88
2022-12-15T03:56:21.485Z,17.88
2022-12-15T03:58:48.129Z,14.68
2022-12-15T04:01:20.948Z,14.70
2022-12-15T04:03:47.835Z,16.30
2022-12-15T04:06:14.488Z,14.02
2022-12-15T04:08:41.043Z,17.63
2022-12-15T04:11:07.670Z,12.57
2022-12-15T04:13:34.561Z,14.30
2022-12-15T04:16:04.472Z,14.25
2022-12-15T04:18:31.086Z,16.25
2022-12-15T04:20:57.695Z,14.93
2022-12-15T04:23:24.362Z,14.25
2022-12-15T04:26:09.813Z,14.93
2022-12-15T04:28:55.150Z,15.23
2022-12-15T04:31:44.631Z,29.73
2022-12-15T04:34:32.779Z,14.10
2022-12-15T04:37:18.054Z,13.02
2022-12-15T04:40:07.638Z,13.60
2022-12-15T04:42:54.344Z,13.15
2022-12-15T04:45:42.989Z,13.93
2022-12-15T04:48:29.172Z,15.50
2022-12-15T04:51:14.520Z,12.63
2022-12-15T04:54:01.956Z,15.10
2022-12-15T04:56:47.417Z,17.52
2022-12-15T04:59:35.555Z,14.95
2022-12-15T05:02:21.019Z,27.80
2022-12-15T05:05:06.354Z,32.17
2022-12-15T05:07:51.711Z,31.45
2022-12-15T05:10:37.239Z,26.10
2022-12-15T05:13:26.427Z,17.23
2022-12-15T05:16:11.904Z,28.70
2022-12-15T05:18:57.339Z,14.20
2022-12-15T05:21:42.787Z,13.13
2022-12-15T05:24:28.143Z,21.83
2022-12-15T05:27:13.600Z,27.15
2022-12-15T05:29:58.929Z,12.13
2022-12-15T05:32:25.549Z,15.07
2022-12-15T05:34:52.114Z,14.75
2022-12-15T05:37:18.756Z,14.05
2022-12-15T05:39:45.319Z,15.68
2022-12-15T05:42:11.891Z,13.50
2022-12-15T05:44:38.489Z,23.10
2022-12-15T05:47:05.119Z,13.88
2022-12-15T05:49:31.918Z,14.02
2022-12-15T05:51:58.893Z,13.48
2022-12-15T05:54:25.484Z,29.13
2022-12-15T05:56:52.059Z,15.32
2022-12-15T05:59:21.767Z,13.13
2022-12-15T06:01:48.533Z,13.77
2022-12-15T06:04:15.311Z,13.23
2022-12-15T06:06:42.543Z,20.17
2022-12-15T06:09:09.593Z,24.65
2022-12-15T06:11:37.291Z,36.45
2022-12-15T06:14:03.895Z,14.77
2022-12-15T06:16:30.866Z,18.92
2022-12-15T06:19:00.368Z,15.45
2022-12-15T06:21:30.575Z,13.43
2022-12-15T06:23:58.039Z,31.10
2022-12-15T06:26:36.597Z,13.75
2022-12-15T06:29:05.114Z,19.33
2022-12-15T06:31:33.012Z,14.55
2022-12-15T06:34:02.411Z,18.30
2022-12-15T06:36:30.603Z,32.47
2022-12-15T06:39:01.840Z,16.63
2022-12-15T06:41:32.088Z,15.93
2022-12-15T06:43:59.582Z,14.38
2022-12-15T06:46:27.837Z,30.27
2022-12-15T06:48:54.485Z,15.02
2022-12-15T06:51:21.629Z,12.63
2022-12-15T06:53:54.103Z,14.18
2022-12-15T06:56:33.679Z,16.88
2022-12-15T06:59:01.795Z,14.02
2022-12-15T07:01:29.185Z,15.13
2022-12-15T07:03:56.918Z,14.55
2022-12-15T07:06:23.777Z,14.38
2022-12-15T07:08:53.240Z,26.15
2022-12-15T07:11:21.520Z,31.63
2022-12-15T07:13:52.712Z,16.27
2022-12-15T07:16:20.123Z,13.63
2022-12-15T07:18:46.880Z,19.88
2022-12-15T07:21:13.575Z,16.33
2022-12-15T07:23:53.946Z,15.45
2022-12-15T07:26:22.197Z,13.77
2022-12-15T07:28:48.786Z,16.13
2022-12-15T07:31:15.744Z,31.05
2022-12-15T07:33:42.720Z,26.40
2022-12-15T07:36:09.561Z,16.58
2022-12-15T07:38:36.800Z,14.57
2022-12-15T07:41:05.862Z,17.83
2022-12-15T07:43:33.121Z,14.25
2022-12-15T07:46:00.509Z,35.22
2022-12-15T07:48:27.622Z,37.45
2022-12-15T07:51:02.805Z,18.15
2022-12-15T07:53:35.499Z,16.67
2022-12-15T07:56:08.802Z,18.33
2022-12-15T07:58:36.887Z,45.90
2022-12-15T08:01:06.015Z,18.98
2022-12-15T08:03:33.530Z,17.88
2022-12-15T08:06:05.403Z,15.20
2022-12-15T08:08:33.025Z,15.50
2022-12-15T08:11:03.710Z,13.73
2022-12-15T08:14:01.235Z,36.22
2022-12-15T08:16:17.025Z,20.75
2022-12-15T08:18:43.682Z,27.98
2022-12-15T08:21:11.600Z,15.57
2022-12-15T08:23:40.162Z,16.55
2022-12-15T08:26:09.822Z,19.05
2022-12-15T08:28:37.944Z,19.73
2022-12-15T08:31:06.819Z,34.63
2022-12-15T08:33:34.118Z,30.30
2022-12-15T08:36:03.697Z,19.92
2022-12-15T08:38:31.409Z,16.20
2022-12-15T08:40:58.696Z,16.63
2022-12-15T08:43:25.314Z,21.67
2022-12-15T08:45:51.949Z,20.30
2022-12-15T08:48:18.595Z,14.55
2022-12-15T08:50:45.729Z,14.63
2022-12-15T08:53:30.806Z,19.35
2022-12-15T08:56:09.904Z,29.63
2022-12-15T08:58:36.514Z,18.95
2022-12-15T09:01:06.374Z,14.85
2022-12-15T09:03:34.882Z,18.13
2022-12-15T09:06:03.775Z,15.45
2022-12-15T09:08:31.063Z,15.35
2022-12-15T09:10:59.199Z,18.40
2022-12-15T09:13:26.405Z,18.85
2022-12-15T09:16:17.722Z,18.83
2022-12-15T09:18:47.673Z,16.95
2022-12-15T09:21:15.699Z,15.20
2022-12-15T09:23:42.947Z,15.23
2022-12-15T09:26:12.069Z,13.10
2022-12-15T09:28:39.243Z,18.50
2022-12-15T09:31:08.348Z,19.13
2022-12-15T09:33:36.010Z,19.23
2022-12-15T09:36:03.627Z,16.98
2022-12-15T09:38:30.932Z,16.48
2022-12-15T09:40:57.916Z,28.45
2022-12-15T09:43:35.406Z,13.80
2022-12-15T09:46:27.203Z,14.30
2022-12-15T09:48:55.560Z,14.70
2022-12-15T09:51:39.160Z,17.38
2022-12-15T09:54:06.773Z,16.80
2022-12-15T09:56:49.663Z,18.08
2022-12-15T09:59:58.537Z,14.88
2022-12-15T10:03:02.062Z,17.05
2022-12-15T10:08:56.300Z,32.42
2022-12-15T10:11:50.330Z,26.33
2022-12-15T10:14:30.250Z,17.02
2022-12-15T10:17:23.158Z,13.38
2022-12-15T10:19:52.726Z,19.60
2022-12-15T10:22:30.624Z,22.38
2022-12-15T10:25:10.490Z,13.70
2022-12-15T10:27:59.465Z,14.60
2022-12-15T10:30:26.361Z,16.02
2022-12-15T10:33:16.525Z,29.23
2022-12-15T10:35:44.007Z,16.90
2022-12-15T10:38:37.656Z,29.30
2022-12-15T10:41:14.023Z,17.98
2022-12-15T10:43:43.252Z,18.08
2022-12-15T10:46:21.761Z,15.40
2022-12-15T10:49:09.939Z,12.23
2022-12-15T10:51:53.019Z,20.05
2022-12-15T10:54:20.769Z,20.10
2022-12-15T10:56:50.936Z,17.80
2022-12-15T10:59:23.399Z,12.95
2022-12-15T11:01:51.104Z,12.85
2022-12-15T11:04:29.093Z,18.67
2022-12-15T11:07:01.903Z,11.73
2022-12-15T11:09:38.438Z,12.80
2022-12-15T11:12:50.506Z,12.25
2022-12-15T11:15:23.432Z,17.88
2022-12-15T11:17:58.373Z,13.00
2022-12-15T11:20:33.427Z,13.32
2022-12-15T11:23:16.525Z,20.15
2022-12-15T11:25:48.039Z,12.77
2022-12-15T11:28:24.006Z,15.45
2022-12-15T11:31:00.228Z,25.70
2022-12-15T11:33:26.895Z,14.07
2022-12-15T11:36:09.992Z,13.18
2022-12-15T11:39:06.495Z,17.85
2022-12-15T11:41:43.118Z,12.95
2022-12-15T11:44:18.888Z,17.35
2022-12-15T11:47:07.824Z,19.92
2022-12-15T11:49:52.719Z,13.63
2022-12-15T11:52:43.992Z,13.02
2022-12-15T11:55:43.137Z,14.27
2022-12-15T11:58:34.721Z,11.77
2022-12-15T12:01:22.063Z,14.93
2022-12-15T12:04:09.012Z,34.35
2022-12-15T12:06:45.183Z,15.75
2022-12-15T12:09:56.437Z,23.88
2022-12-15T12:12:36.090Z,11.02
2022-12-15T12:15:27.756Z,15.43
2022-12-15T12:18:12.861Z,11.50
2022-12-15T12:20:46.890Z,16.92
2022-12-15T12:23:29.733Z,13.85
2022-12-15T12:26:11.014Z,36.78
2022-12-15T12:28:48.639Z,13.43
2022-12-15T12:31:42.912Z,13.23
2022-12-15T12:34:17.472Z,11.85
2022-12-15T12:36:45.252Z,27.08
2022-12-15T12:39:23.116Z,14.75
2022-12-15T12:41:59.773Z,18.95
2022-12-15T12:44:35.903Z,18.00
2022-12-15T12:47:26.330Z,18.83
2022-12-15T12:49:58.631Z,21.17
2022-12-15T12:52:30.698Z,31.30
2022-12-15T12:55:01.905Z,24.70
2022-12-15T12:57:42.484Z,25.35
2022-12-15T13:00:20.288Z,19.08
2022-12-15T13:02:52.656Z,25.13
2022-12-15T13:05:22.513Z,16.50
2022-12-15T13:08:03.397Z,18.75
2022-12-15T13:10:30.089Z,28.98
2022-12-15T13:12:59.174Z,22.77
2022-12-15T13:15:37.202Z,11.23
2022-12-15T13:18:17.347Z,13.25
2022-12-15T13:20:45.509Z,16.63
2022-12-15T13:23:21.375Z,19.75
2022-12-15T13:25:57.313Z,40.58
2022-12-15T13:28:36.130Z,21.83
2022-12-15T13:31:11.601Z,13.80
2022-12-15T13:34:17.878Z,19.50
2022-12-15T13:36:54.688Z,19.48
2022-12-15T13:39:22.145Z,15.57
2022-12-15T13:42:23.737Z,23.17
2022-12-15T13:44:43.876Z,14.77
2022-12-15T13:47:29.883Z,13.90
2022-12-15T13:50:29.964Z,16.23
2022-12-15T13:56:05.730Z,13.40
2022-12-15T13:58:41.217Z,15.77
2022-12-15T14:01:30.181Z,13.35
2022-12-15T14:04:05.995Z,13.93
2022-12-15T14:06:43.854Z,12.88
2022-12-15T14:09:15.062Z,17.35
2022-12-15T14:11:58.629Z,15.13
2022-12-15T14:14:33.294Z,28.30
2022-12-15T14:17:02.763Z,22.50
2022-12-15T14:19:41.215Z,38.60
2022-12-15T14:22:29.070Z,21.50
2022-12-15T14:25:16.217Z,20.35
2022-12-15T14:27:42.793Z,21.35
2022-12-15T14:30:15.024Z,17.10
2022-12-15T14:32:44.098Z,14.88
2022-12-15T14:35:17.393Z,17.98
2022-12-15T14:37:44.165Z,19.67
2022-12-15T14:40:21.372Z,19.50
2022-12-15T14:42:54.057Z,12.93
2022-12-15T14:45:25.470Z,17.45
2022-12-15T14:48:21.615Z,14.82
2022-12-15T14:50:48.969Z,13.57
2022-12-15T14:53:18.282Z,16.27
2022-12-15T14:55:44.890Z,28.33
2022-12-15T14:58:34.870Z,16.67
2022-12-15T15:01:04.089Z,17.58
2022-12-15T15:03:39.060Z,14.85
2022-12-15T15:06:17.138Z,18.35
2022-12-15T15:08:50.734Z,34.80
2022-12-15T15:11:29.663Z,19.95
2022-12-15T15:14:00.165Z,22.23
2022-12-15T15:16:27.244Z,23.48
2022-12-15T15:18:55.881Z,34.88
2022-12-15T15:21:25.565Z,51.97
2022-12-15T15:24:04.364Z,25.90
2022-12-15T15:26:31.546Z,27.13
2022-12-15T15:28:58.591Z,31.33
2022-12-15T15:31:25.237Z,27.88
2022-12-15T15:33:52.844Z,30.80
2022-12-15T15:36:19.584Z,33.10
2022-12-15T15:38:52.046Z,26.63
2022-12-15T15:41:30.141Z,33.45
2022-12-15T15:43:59.244Z,27.58
2022-12-15T15:46:30.316Z,21.52
2022-12-15T15:48:59.184Z,21.75
2022-12-15T15:51:27.287Z,19.40
2022-12-15T15:53:57.891Z,31.50
2022-12-15T15:56:24.575Z,48.42
2022-12-15T15:58:51.114Z,30.40
2022-12-15T16:01:17.682Z,19.48
2022-12-15T16:03:44.428Z,30.92
2022-12-15T16:06:17.626Z,39.38
2022-12-15T16:08:46.328Z,44.90
2022-12-15T16:11:12.976Z,44.80
2022-12-15T16:13:39.792Z,30.75
2022-12-15T16:16:06.966Z,32.60
2022-12-15T16:18:34.128Z,23.33
2022-12-15T16:21:01.030Z,51.60
2022-12-15T16:23:29.534Z,22.73
2022-12-15T16:26:00.088Z,22.65
2022-12-15T16:28:29.647Z,26.30
2022-12-15T16:31:01.394Z,26.48
2022-12-15T16:33:28.283Z,35.10
2022-12-15T16:35:55.024Z,23.17
2022-12-15T16:38:26.056Z,43.10
2022-12-15T16:40:55.337Z,24.60
2022-12-15T16:43:26.160Z,31.42
2022-12-15T16:45:54.845Z,21.05
2022-12-15T16:48:21.717Z,22.70
2022-12-15T16:50:58.103Z,18.15
2022-12-15T16:53:35.167Z,24.42
2022-12-15T16:56:05.940Z,31.52
2022-12-15T16:58:35.425Z,20.83
2022-12-15T17:01:02.266Z,23.20
2022-12-15T17:03:29.191Z,49.00
2022-12-15T17:06:04.001Z,28.88
2022-12-15T17:08:46.681Z,53.75
2022-12-15T17:11:21.514Z,51.85
2022-12-15T17:13:51.193Z,38.47
2022-12-15T17:16:19.593Z,47.30
2022-12-15T17:18:46.549Z,20.98
2022-12-15T17:21:45.124Z,50.60
2022-12-15T17:24:15.582Z,33.13
2022-12-15T17:26:44.319Z,44.92
2022-12-15T17:29:17.304Z,19.65
2022-12-15T17:31:44.120Z,48.03
2022-12-15T17:34:46.156Z,24.65
2022-12-15T17:37:14.216Z,24.67
2022-12-15T17:39:41.804Z,53.58
2022-12-15T17:42:20.580Z,23.73
2022-12-15T17:44:48.275Z,17.92
2022-12-15T17:47:16.403Z,21.95
2022-12-15T17:49:43.880Z,18.50
2022-12-15T17:52:19.315Z,23.73
2022-12-15T17:54:46.064Z,37.85
2022-12-15T17:57:12.826Z,17.23
2022-12-15T17:59:39.416Z,28.20
2022-12-15T18:02:06.305Z,36.10
2022-12-15T18:04:33.096Z,19.75
2022-12-15T18:07:01.941Z,31.23
2022-12-15T18:09:28.959Z,39.42
2022-12-15T18:11:55.525Z,40.42
2022-12-15T18:14:22.777Z,23.98
2022-12-15T18:16:49.983Z,28.92
2022-12-15T18:19:16.667Z,36.08
2022-12-15T18:21:43.348Z,19.08
2022-12-15T18:24:13.098Z,27.23
2022-12-15T18:26:39.683Z,27.23
2022-12-15T18:29:20.193Z,67.63
2022-12-15T18:31:48.560Z,36.05
2022-12-15T18:34:17.863Z,32.00
2022-12-15T18:36:44.891Z,50.58
2022-12-15T18:39:19.515Z,49.88
2022-12-15T18:41:46.789Z,61.20
2022-12-15T18:44:26.604Z,33.80
2022-12-15T18:46:55.107Z,48.17
2022-12-15T18:49:22.578Z,56.03
2022-12-15T18:51:49.301Z,55.58
2022-12-15T18:54:22.330Z,62.78
2022-12-15T18:56:49.537Z,46.60
2022-12-15T18:59:17.769Z,31.52
2022-12-15T19:01:46.273Z,32.97
2022-12-15T19:04:13.952Z,26.80
2022-12-15T19:06:41.354Z,19.17
2022-12-15T19:09:15.557Z,47.00
2022-12-15T19:12:03.797Z,25.20
2022-12-15T19:14:42.899Z,22.08
2022-12-15T19:17:42.136Z,23.85
2022-12-15T19:20:36.059Z,41.05
2022-12-15T19:23:03.288Z,26.88
2022-12-15T19:25:30.700Z,26.38
2022-12-15T19:27:59.788Z,75.55
2022-12-15T19:30:29.316Z,25.33
2022-12-15T19:32:56.155Z,22.50
2022-12-15T19:35:23.095Z,24.40
2022-12-15T19:37:49.936Z,46.78
2022-12-15T19:40:27.328Z,25.48
2022-12-15T19:42:55.692Z,26.08
2022-12-15T19:45:27.520Z,48.45
2022-12-15T19:47:54.964Z,65.53
2022-12-15T19:50:24.127Z,23.13
2022-12-15T19:52:54.861Z,32.65
2022-12-15T19:55:25.907Z,29.23
2022-12-15T19:57:52.677Z,34.00
2022-12-15T20:00:22.229Z,63.65
2022-12-15T20:02:51.472Z,25.60
2022-12-15T20:05:19.378Z,41.67
2022-12-15T20:07:46.530Z,24.92
2022-12-15T20:10:23.317Z,27.55
2022-12-15T20:12:53.338Z,27.90
2022-12-15T20:15:22.909Z,24.48
2022-12-15T20:17:56.398Z,45.08
2022-12-15T20:20:24.635Z,27.80
2022-12-15T20:22:56.309Z,25.70
2022-12-15T20:25:26.171Z,29.80
2022-12-15T20:27:52.842Z,49.75
2022-12-15T20:30:22.436Z,30.45
2022-12-15T20:32:49.479Z,30.30
2022-12-15T20:35:17.695Z,29.52
2022-12-15T20:37:44.446Z,27.45
2022-12-15T20:40:19.614Z,37.05
2022-12-15T20:42:46.712Z,26.52
2022-12-15T20:45:15.467Z,31.52
2022-12-15T20:47:44.378Z,42.90
2022-12-15T20:50:37.397Z,45.45
2022-12-15T20:53:05.872Z,29.27
2022-12-15T20:55:32.537Z,39.13
2022-12-15T20:57:59.215Z,55.15
2022-12-15T21:00:26.209Z,57.70
2022-12-15T21:02:55.020Z,59.53
2022-12-15T21:05:24.606Z,53.35
2022-12-15T21:07:52.199Z,52.53
2022-12-15T21:10:20.239Z,60.40
2022-12-15T21:12:49.091Z,54.20
2022-12-15T21:15:22.219Z,53.13
2022-12-15T21:17:57.891Z,55.17
2022-12-15T21:20:30.443Z,51.67
2022-12-15T21:22:57.696Z,64.28
2022-12-15T21:25:26.367Z,48.08
2022-12-15T21:27:53.283Z,50.35
2022-12-15T21:30:22.772Z,55.90
2022-12-15T21:32:50.445Z,47.47
2022-12-15T21:35:18.637Z,43.47
2022-12-15T21:37:49.532Z,58.85
2022-12-15T21:40:21.155Z,50.97
2022-12-15T21:42:49.916Z,51.10
2022-12-15T21:45:19.709Z,44.88
2022-12-15T21:48:06.070Z,40.75
2022-12-15T21:50:33.486Z,47.47
2022-12-15T21:53:01.215Z,54.40
2022-12-15T21:55:29.251Z,48.03
2022-12-15T21:57:57.167Z,48.40
2022-12-15T22:00:25.036Z,58.78
2022-12-15T22:02:53.474Z,42.67
2022-12-15T22:05:21.759Z,43.20
2022-12-15T22:07:49.485Z,49.47
2022-12-15T22:10:17.649Z,60.40
2022-12-15T22:12:59.298Z,43.95
2022-12-15T22:15:28.237Z,42.63
2022-12-15T22:17:56.076Z,43.70
2022-12-15T22:20:24.425Z,53.42
2022-12-15T22:22:51.311Z,41.13
2022-12-15T22:25:21.388Z,46.03
2022-12-15T22:27:48.550Z,39.10
2022-12-15T22:30:25.315Z,40.70
2022-12-15T22:32:52.667Z,51.20
2022-12-15T22:35:23.033Z,39.42
2022-12-15T22:37:53.452Z,52.00
2022-12-15T22:40:21.483Z,46.92
2022-12-15T22:42:53.199Z,44.08
2022-12-15T22:45:23.946Z,56.50
2022-12-15T22:47:52.183Z,40.72
2022-12-15T22:50:22.132Z,40.25
2022-12-15T22:52:48.808Z,37.22
2022-12-15T22:55:16.869Z,38.88
2022-12-15T22:57:53.994Z,41.80
2022-12-15T23:00:20.711Z,39.97
2022-12-15T23:02:47.584Z,35.63
2022-12-15T23:05:18.587Z,62.30
2022-12-15T23:07:45.289Z,42.65
2022-12-15T23:10:33.020Z,62.20
2022-12-15T23:13:00.029Z,38.00
2022-12-15T23:15:47.060Z,50.50
2022-12-15T23:18:14.105Z,38.40
2022-12-15T23:20:41.149Z,36.53
2022-12-15T23:23:08.547Z,34.75
2022-12-15T23:25:35.334Z,37.90
2022-12-15T23:28:01.950Z,50.42
2022-12-15T23:30:28.516Z,35.90
2022-12-15T23:32:55.445Z,73.18
2022-12-15T23:35:22.221Z,37.65
2022-12-15T23:37:48.815Z,45.90
2022-12-15T23:40:21.233Z,34.45
2022-12-15T23:42:49.188Z,41.80
2022-12-15T23:45:16.007Z,39.40
2022-12-15T23:47:42.927Z,38.03
2022-12-15T23:50:09.770Z,50.92
2022-12-15T23:52:36.959Z,39.90
2022-12-15T23:55:04.541Z,34.53
2022-12-15T23:57:31.943Z,35.90
2022-12-15T23:59:58.599Z,35.38
